createdAt,value
2015-07-17T00:00:07.335Z,0
2015-07-17T00:00:25.869Z,0
2015-07-17T00:00:44.291Z,0
2015-07-17T00:01:02.760Z,0
2015-07-17T00:01:21.244Z,0
2015-07-17T00:01:39.683Z,0
2015-07-17T00:01:58.073Z,0
2015-07-17T00:02:16.620Z,0
2015-07-17T00:02:35.107Z,0
2015-07-17T00:02:53.513Z,0
2015-07-17T00:03:12.013Z,0
2015-07-17T00:03:30.452Z,1
2015-07-17T00:03:48.890Z,1
2015-07-17T00:04:07.484Z,1
2015-07-17T00:04:25.923Z,0
2015-07-17T00:04:44.517Z,0
2015-07-17T00:05:02.954Z,0
2015-07-17T00:05:21.673Z,0
2015-07-17T00:05:40.066Z,0
2015-07-17T00:05:58.644Z,0
2015-07-17T00:06:17.222Z,0
2015-07-17T00:06:35.755Z,0
2015-07-17T00:06:54.302Z,0
2015-07-17T00:07:12.724Z,0
2015-07-17T00:07:31.101Z,0
2015-07-17T00:07:49.585Z,0
2015-07-17T00:08:08.460Z,0
2015-07-17T00:08:26.851Z,0
2015-07-17T00:08:45.228Z,0
2015-07-17T00:09:03.619Z,0
2015-07-17T00:09:21.994Z,0
2015-07-17T00:09:40.464Z,0
2015-07-17T00:09:58.839Z,0
2015-07-17T00:10:17.246Z,0
2015-07-17T00:10:35.919Z,0
2015-07-17T00:10:54.451Z,0
2015-07-17T00:11:12.810Z,0
2015-07-17T00:11:31.201Z,0
2015-07-17T00:11:49.609Z,0
2015-07-17T00:12:08.078Z,0
2015-07-17T00:12:26.546Z,0
2015-07-17T00:12:45.127Z,0
2015-07-17T00:13:03.548Z,0
2015-07-17T00:13:22.080Z,0
2015-07-17T00:13:40.472Z,0
2015-07-17T00:13:59.129Z,0
2015-07-17T00:14:17.722Z,0
2015-07-17T00:14:36.144Z,0
2015-07-17T00:14:54.584Z,0
2015-07-17T00:15:12.974Z,0
2015-07-17T00:15:31.537Z,0
2015-07-17T00:15:50.100Z,0
2015-07-17T00:16:08.538Z,0
2015-07-17T00:16:26.897Z,0
2015-07-17T00:16:45.477Z,0
2015-07-17T00:17:04.040Z,0
2015-07-17T00:17:22.759Z,0
2015-07-17T00:17:41.165Z,0
2015-07-17T00:17:59.573Z,1
2015-07-17T00:18:17.995Z,0
2015-07-17T00:18:36.620Z,1
2015-07-17T00:18:55.139Z,0
2015-07-17T00:19:13.826Z,0
2015-07-17T00:19:32.451Z,0
2015-07-17T00:19:50.828Z,0
2015-07-17T00:20:09.297Z,1
2015-07-17T00:20:27.719Z,1
2015-07-17T00:20:46.172Z,1
2015-07-17T00:21:04.657Z,1
2015-07-17T00:21:23.235Z,1
2015-07-17T00:21:41.626Z,1
2015-07-17T00:22:00.301Z,1
2015-07-17T00:22:18.723Z,1
2015-07-17T00:22:37.145Z,1
2015-07-17T00:22:55.739Z,1
2015-07-17T00:23:14.271Z,1
2015-07-17T00:23:32.833Z,0
2015-07-17T00:23:51.224Z,1
2015-07-17T00:24:09.601Z,1
2015-07-17T00:24:28.038Z,0
2015-07-17T00:24:46.476Z,0
2015-07-17T00:25:04.838Z,1
2015-07-17T00:25:23.291Z,1
2015-07-17T00:25:41.713Z,1
2015-07-17T00:26:00.106Z,1
2015-07-17T00:26:18.496Z,1
2015-07-17T00:26:36.934Z,1
2015-07-17T00:26:55.324Z,1
2015-07-17T00:27:13.967Z,1
2015-07-17T00:27:32.405Z,1
2015-07-17T00:27:50.764Z,1
2015-07-17T00:28:09.312Z,1
2015-07-17T00:28:27.702Z,1
2015-07-17T00:28:46.093Z,1
2015-07-17T00:29:04.783Z,1
2015-07-17T00:29:23.298Z,1
2015-07-17T00:29:41.767Z,1
2015-07-17T00:30:00.267Z,1
2015-07-17T00:30:18.692Z,1
2015-07-17T00:30:37.207Z,0
2015-07-17T00:30:55.661Z,1
2015-07-17T00:31:14.053Z,0
2015-07-17T00:31:32.413Z,0
2015-07-17T00:31:51.006Z,1
2015-07-17T00:32:09.477Z,1
2015-07-17T00:32:27.461Z,1
2015-07-17T00:32:45.915Z,0
2015-07-17T00:33:04.368Z,1
2015-07-17T00:33:22.931Z,0
2015-07-17T00:33:40.869Z,0
2015-07-17T00:33:59.337Z,0
2015-07-17T00:34:17.714Z,0
2015-07-17T00:34:36.214Z,0
2015-07-17T00:34:54.636Z,0
2015-07-17T00:35:13.341Z,0
2015-07-17T00:35:31.763Z,0
2015-07-17T00:35:50.201Z,0
2015-07-17T00:36:08.779Z,0
2015-07-17T00:36:27.187Z,0
2015-07-17T00:36:45.547Z,0
2015-07-17T00:37:04.109Z,0
2015-07-17T00:37:22.470Z,0
2015-07-17T00:37:41.033Z,1
2015-07-17T00:37:59.517Z,0
2015-07-17T00:38:18.035Z,0
2015-07-17T00:38:36.566Z,0
2015-07-17T00:38:55.019Z,0
2015-07-17T00:39:13.535Z,0
2015-07-17T00:39:31.896Z,0
2015-07-17T00:39:50.490Z,0
2015-07-17T00:40:08.849Z,0
2015-07-17T00:40:27.242Z,0
2015-07-17T00:40:45.664Z,0
2015-07-17T00:41:04.101Z,0
2015-07-17T00:41:22.369Z,0
2015-07-17T00:41:40.900Z,0
2015-07-17T00:41:59.525Z,1
2015-07-17T00:42:17.947Z,1
2015-07-17T00:42:36.309Z,1
2015-07-17T00:42:55.105Z,1
2015-07-17T00:43:13.543Z,1
2015-07-17T00:43:32.013Z,1
2015-07-17T00:43:50.560Z,1
2015-07-17T00:44:09.060Z,1
2015-07-17T00:44:27.499Z,2
2015-07-17T00:44:46.077Z,2
2015-07-17T00:45:04.452Z,2
2015-07-17T00:45:22.923Z,2
2015-07-17T00:45:41.329Z,1
2015-07-17T00:45:59.704Z,1
2015-07-17T00:46:18.110Z,1
2015-07-17T00:46:36.567Z,1
2015-07-17T00:46:55.238Z,1
2015-07-17T00:47:13.879Z,1
2015-07-17T00:47:32.350Z,2
2015-07-17T00:47:51.084Z,2
2015-07-17T00:48:09.475Z,1
2015-07-17T00:48:28.007Z,1
2015-07-17T00:48:46.804Z,1
2015-07-17T00:49:05.304Z,1
2015-07-17T00:49:23.679Z,1
2015-07-17T00:49:42.213Z,1
2015-07-17T00:50:00.573Z,1
2015-07-17T00:50:18.994Z,1
2015-07-17T00:50:37.434Z,1
2015-07-17T00:50:56.059Z,1
2015-07-17T00:51:14.496Z,1
2015-07-17T00:51:32.982Z,1
2015-07-17T00:51:51.388Z,1
2015-07-17T00:52:10.013Z,1
2015-07-17T00:52:28.419Z,2
2015-07-17T00:52:47.016Z,1
2015-07-17T00:53:05.469Z,1
2015-07-17T00:53:23.954Z,1
2015-07-17T00:53:42.392Z,1
2015-07-17T00:54:00.814Z,1
2015-07-17T00:54:19.330Z,2
2015-07-17T00:54:37.770Z,1
2015-07-17T00:54:56.161Z,1
2015-07-17T00:55:14.536Z,1
2015-07-17T00:55:32.942Z,1
2015-07-17T00:55:51.287Z,1
2015-07-17T00:56:09.662Z,1
2015-07-17T00:56:28.037Z,2
2015-07-17T00:56:46.414Z,2
2015-07-17T00:57:04.789Z,2
2015-07-17T00:57:23.164Z,3
2015-07-17T00:57:41.541Z,2
2015-07-17T00:57:59.916Z,2
2015-07-17T00:58:18.291Z,2
2015-07-17T00:58:36.650Z,2
2015-07-17T00:58:55.043Z,2
2015-07-17T00:59:13.418Z,2
2015-07-17T00:59:31.793Z,2
2015-07-17T00:59:50.185Z,2
2015-07-17T01:00:08.576Z,2
2015-07-17T01:00:26.951Z,2
2015-07-17T01:00:45.345Z,2
2015-07-17T01:01:03.704Z,2
2015-07-17T01:01:22.079Z,2
2015-07-17T01:01:40.454Z,2
2015-07-17T01:01:58.831Z,2
2015-07-17T01:02:17.190Z,1
2015-07-17T01:02:35.565Z,1
2015-07-17T01:02:53.941Z,2
2015-07-17T01:03:12.316Z,2
2015-07-17T01:03:30.691Z,2
2015-07-17T01:03:49.068Z,2
2015-07-17T01:04:07.459Z,2
2015-07-17T01:04:25.850Z,2
2015-07-17T01:04:44.240Z,2
2015-07-17T01:05:02.586Z,2
2015-07-17T01:05:20.977Z,2
2015-07-17T01:05:39.336Z,2
2015-07-17T01:05:57.713Z,2
2015-07-17T01:06:16.088Z,2
2015-07-17T01:06:34.463Z,2
2015-07-17T01:06:52.856Z,2
2015-07-17T01:07:11.277Z,2
2015-07-17T01:07:29.652Z,2
2015-07-17T01:07:48.027Z,2
2015-07-17T01:08:06.420Z,2
2015-07-17T01:08:24.811Z,2
2015-07-17T01:08:43.201Z,2
2015-07-17T01:09:01.578Z,2
2015-07-17T01:09:19.938Z,2
2015-07-17T01:09:38.328Z,2
2015-07-17T01:09:56.721Z,2
2015-07-17T01:10:15.080Z,2
2015-07-17T01:10:32.799Z,2
2015-07-17T01:10:51.190Z,2
2015-07-17T01:11:09.566Z,2
2015-07-17T01:11:27.956Z,2
2015-07-17T01:11:46.331Z,2
2015-07-17T01:12:04.708Z,2
2015-07-17T01:12:23.083Z,2
2015-07-17T01:12:41.474Z,2
2015-07-17T01:12:59.851Z,2
2015-07-17T01:13:18.210Z,2
2015-07-17T01:13:36.585Z,2
2015-07-17T01:13:54.945Z,2
2015-07-17T01:14:13.338Z,2
2015-07-17T01:14:31.713Z,2
2015-07-17T01:14:50.088Z,2
2015-07-17T01:15:08.480Z,2
2015-07-17T01:15:26.855Z,2
2015-07-17T01:15:45.214Z,2
2015-07-17T01:16:03.591Z,2
2015-07-17T01:16:21.966Z,2
2015-07-17T01:16:40.341Z,2
2015-07-17T01:16:58.716Z,2
2015-07-17T01:17:17.094Z,2
2015-07-17T01:17:35.485Z,2
2015-07-17T01:17:53.876Z,2
2015-07-17T01:18:12.268Z,2
2015-07-17T01:18:30.643Z,2
2015-07-17T01:18:49.018Z,2
2015-07-17T01:19:07.395Z,2
2015-07-17T01:19:25.770Z,2
2015-07-17T01:19:44.005Z,2
2015-07-17T01:20:02.364Z,2
2015-07-17T01:20:20.740Z,2
2015-07-17T01:20:39.162Z,2
2015-07-17T01:20:57.521Z,2
2015-07-17T01:21:15.898Z,2
2015-07-17T01:21:34.273Z,2
2015-07-17T01:21:52.008Z,2
2015-07-17T01:22:10.385Z,2
2015-07-17T01:22:28.760Z,2
2015-07-17T01:22:47.135Z,2
2015-07-17T01:23:05.510Z,2
2015-07-17T01:23:23.888Z,2
2015-07-17T01:23:42.263Z,2
2015-07-17T01:24:00.638Z,2
2015-07-17T01:24:19.015Z,2
2015-07-17T01:24:37.405Z,2
2015-07-17T01:24:55.780Z,2
2015-07-17T01:25:14.187Z,2
2015-07-17T01:25:32.562Z,2
2015-07-17T01:25:50.937Z,2
2015-07-17T01:26:09.328Z,2
2015-07-17T01:26:27.705Z,2
2015-07-17T01:26:46.080Z,2
2015-07-17T01:27:04.455Z,2
2015-07-17T01:27:22.832Z,2
2015-07-17T01:27:41.223Z,2
2015-07-17T01:27:58.957Z,2
2015-07-17T01:28:17.334Z,2
2015-07-17T01:28:35.709Z,2
2015-07-17T01:28:54.178Z,2
2015-07-17T01:29:12.709Z,2
2015-07-17T01:29:31.367Z,2
2015-07-17T01:29:49.820Z,2
2015-07-17T01:30:08.602Z,2
2015-07-17T01:30:27.041Z,2
2015-07-17T01:30:45.588Z,2
2015-07-17T01:31:03.979Z,2
2015-07-17T01:31:22.465Z,2
2015-07-17T01:31:40.871Z,2
2015-07-17T01:31:59.434Z,2
2015-07-17T01:32:17.810Z,2
2015-07-17T01:32:36.357Z,2
2015-07-17T01:32:54.888Z,2
2015-07-17T01:33:13.263Z,2
2015-07-17T01:33:31.844Z,2
2015-07-17T01:33:50.203Z,2
2015-07-17T01:34:07.922Z,2
2015-07-17T01:34:26.454Z,2
2015-07-17T01:34:44.845Z,2
2015-07-17T01:35:03.345Z,2
2015-07-17T01:35:21.769Z,2
2015-07-17T01:35:40.160Z,2
2015-07-17T01:35:58.597Z,2
2015-07-17T01:36:16.988Z,2
2015-07-17T01:36:35.505Z,2
2015-07-17T01:36:54.021Z,2
2015-07-17T01:37:12.474Z,2
2015-07-17T01:37:31.085Z,2
2015-07-17T01:37:49.523Z,2
2015-07-17T01:38:07.914Z,2
2015-07-17T01:38:26.478Z,2
2015-07-17T01:38:45.181Z,2
2015-07-17T01:39:03.603Z,2
2015-07-17T01:39:22.056Z,2
2015-07-17T01:39:40.496Z,2
2015-07-17T01:39:58.996Z,2
2015-07-17T01:40:17.636Z,2
2015-07-17T01:40:36.124Z,2
2015-07-17T01:40:54.608Z,2
2015-07-17T01:41:13.092Z,2
2015-07-17T01:41:31.485Z,2
2015-07-17T01:41:50.001Z,2
2015-07-17T01:42:08.438Z,2
2015-07-17T01:42:26.860Z,2
2015-07-17T01:42:45.283Z,2
2015-07-17T01:43:03.674Z,2
2015-07-17T01:43:22.252Z,2
2015-07-17T01:43:40.707Z,2
2015-07-17T01:43:59.191Z,2
2015-07-17T01:44:17.551Z,2
2015-07-17T01:44:36.007Z,2
2015-07-17T01:44:54.413Z,2
2015-07-17T01:45:12.804Z,2
2015-07-17T01:45:31.194Z,2
2015-07-17T01:45:49.696Z,2
2015-07-17T01:46:08.196Z,2
2015-07-17T01:46:26.696Z,2
2015-07-17T01:46:45.228Z,2
2015-07-17T01:47:03.791Z,2
2015-07-17T01:47:22.369Z,2
2015-07-17T01:47:40.824Z,2
2015-07-17T01:47:59.340Z,2
2015-07-17T01:48:17.840Z,2
2015-07-17T01:48:36.496Z,2
2015-07-17T01:48:55.014Z,2
2015-07-17T01:49:13.592Z,2
2015-07-17T01:49:32.123Z,2
2015-07-17T01:49:50.766Z,2
2015-07-17T01:50:09.438Z,2
2015-07-17T01:50:27.844Z,2
2015-07-17T01:50:46.236Z,2
2015-07-17T01:51:05.049Z,2
2015-07-17T01:51:24.002Z,2
2015-07-17T01:51:42.440Z,2
2015-07-17T01:52:01.067Z,2
2015-07-17T01:52:19.598Z,2
2015-07-17T01:52:38.082Z,2
2015-07-17T01:52:56.538Z,2
2015-07-17T01:53:14.976Z,2
2015-07-17T01:53:33.507Z,2
2015-07-17T01:53:51.930Z,2
2015-07-17T01:54:10.461Z,2
2015-07-17T01:54:29.149Z,2
2015-07-17T01:54:47.930Z,2
2015-07-17T01:55:06.354Z,2
2015-07-17T01:55:25.104Z,2
2015-07-17T01:55:43.963Z,2
2015-07-17T01:56:02.496Z,2
2015-07-17T01:56:21.043Z,2
2015-07-17T01:56:39.606Z,2
2015-07-17T01:56:58.155Z,2
2015-07-17T01:57:17.061Z,2
2015-07-17T01:57:35.530Z,2
2015-07-17T01:57:53.889Z,1
2015-07-17T01:58:12.422Z,2
2015-07-17T01:58:30.125Z,2
2015-07-17T01:58:48.672Z,2
2015-07-17T01:59:07.206Z,2
2015-07-17T01:59:25.596Z,2
2015-07-17T01:59:44.096Z,2
2015-07-17T02:00:02.473Z,2
2015-07-17T02:00:21.145Z,2
2015-07-17T02:00:39.520Z,2
2015-07-17T02:00:58.100Z,2
2015-07-17T02:01:16.506Z,2
2015-07-17T02:01:35.163Z,2
2015-07-17T02:01:53.553Z,2
2015-07-17T02:02:11.993Z,2
2015-07-17T02:02:30.368Z,2
2015-07-17T02:02:48.774Z,2
2015-07-17T02:03:07.150Z,2
2015-07-17T02:03:25.619Z,2
2015-07-17T02:03:44.025Z,2
2015-07-17T02:04:02.419Z,2
2015-07-17T02:04:20.809Z,2
2015-07-17T02:04:39.216Z,2
2015-07-17T02:04:57.606Z,2
2015-07-17T02:05:15.999Z,2
2015-07-17T02:05:34.374Z,2
2015-07-17T02:05:52.811Z,2
2015-07-17T02:06:11.172Z,2
2015-07-17T02:06:29.562Z,2
2015-07-17T02:06:47.937Z,2
2015-07-17T02:07:06.315Z,2
2015-07-17T02:07:24.722Z,2
2015-07-17T02:07:42.550Z,2
2015-07-17T02:08:01.018Z,2
2015-07-17T02:08:19.427Z,2
2015-07-17T02:08:37.942Z,2
2015-07-17T02:08:56.520Z,2
2015-07-17T02:09:14.896Z,2
2015-07-17T02:09:33.506Z,2
2015-07-17T02:09:52.006Z,2
2015-07-17T02:10:10.477Z,2
2015-07-17T02:10:28.883Z,2
2015-07-17T02:10:47.383Z,2
2015-07-17T02:11:05.992Z,2
2015-07-17T02:11:24.525Z,2
2015-07-17T02:11:42.916Z,2
2015-07-17T02:12:01.541Z,2
2015-07-17T02:12:19.965Z,2
2015-07-17T02:12:38.340Z,2
2015-07-17T02:12:56.090Z,2
2015-07-17T02:13:14.483Z,2
2015-07-17T02:13:32.842Z,2
2015-07-17T02:13:51.358Z,2
2015-07-17T02:14:09.764Z,2
2015-07-17T02:14:28.141Z,2
2015-07-17T02:14:46.625Z,2
2015-07-17T02:15:05.000Z,2
2015-07-17T02:15:23.534Z,2
2015-07-17T02:15:41.956Z,2
2015-07-17T02:16:00.378Z,2
2015-07-17T02:16:19.098Z,2
2015-07-17T02:16:37.535Z,2
2015-07-17T02:16:56.035Z,2
2015-07-17T02:17:14.582Z,2
2015-07-17T02:17:33.117Z,2
2015-07-17T02:17:51.851Z,2
2015-07-17T02:18:10.398Z,2
2015-07-17T02:18:28.243Z,2
2015-07-17T02:18:46.899Z,2
2015-07-17T02:19:05.461Z,2
2015-07-17T02:19:23.916Z,2
2015-07-17T02:19:42.323Z,2
2015-07-17T02:20:01.073Z,2
2015-07-17T02:20:19.557Z,2
2015-07-17T02:20:38.012Z,2
2015-07-17T02:20:56.528Z,2
2015-07-17T02:21:15.075Z,2
2015-07-17T02:21:33.311Z,2
2015-07-17T02:21:51.920Z,2
2015-07-17T02:22:10.342Z,3
2015-07-17T02:22:29.110Z,3
2015-07-17T02:22:47.469Z,3
2015-07-17T02:23:06.001Z,3
2015-07-17T02:23:24.595Z,3
2015-07-17T02:23:43.080Z,3
2015-07-17T02:24:01.455Z,3
2015-07-17T02:24:19.877Z,3
2015-07-17T02:24:38.286Z,3
2015-07-17T02:24:56.692Z,3
2015-07-17T02:25:15.051Z,3
2015-07-17T02:25:33.475Z,3
2015-07-17T02:25:51.835Z,3
2015-07-17T02:26:10.366Z,3
2015-07-17T02:26:28.837Z,3
2015-07-17T02:26:47.634Z,3
2015-07-17T02:27:06.087Z,3
2015-07-17T02:27:24.477Z,3
2015-07-17T02:27:42.886Z,3
2015-07-17T02:28:01.495Z,3
2015-07-17T02:28:19.886Z,3
2015-07-17T02:28:38.450Z,4
2015-07-17T02:28:56.903Z,4
2015-07-17T02:29:15.263Z,4
2015-07-17T02:29:33.639Z,4
2015-07-17T02:29:52.467Z,4
2015-07-17T02:30:10.967Z,4
2015-07-17T02:30:29.578Z,4
2015-07-17T02:30:48.016Z,4
2015-07-17T02:31:06.500Z,4
2015-07-17T02:31:25.109Z,5
2015-07-17T02:31:43.675Z,5
2015-07-17T02:32:01.581Z,5
2015-07-17T02:32:20.675Z,5
2015-07-17T02:32:39.052Z,5
2015-07-17T02:32:57.692Z,6
2015-07-17T02:33:16.099Z,6
2015-07-17T02:33:34.757Z,6
2015-07-17T02:33:53.210Z,7
2015-07-17T02:34:11.601Z,6
2015-07-17T02:34:30.054Z,6
2015-07-17T02:34:48.775Z,6
2015-07-17T02:35:07.290Z,6
2015-07-17T02:35:25.696Z,7
2015-07-17T02:35:44.432Z,7
2015-07-17T02:36:02.869Z,7
2015-07-17T02:36:21.463Z,7
2015-07-17T02:36:40.278Z,8
2015-07-17T02:36:58.887Z,8
2015-07-17T02:37:17.340Z,8
2015-07-17T02:37:35.717Z,8
2015-07-17T02:37:54.342Z,8
2015-07-17T02:38:13.092Z,8
2015-07-17T02:38:31.717Z,9
2015-07-17T02:38:50.172Z,9
2015-07-17T02:39:08.532Z,9
2015-07-17T02:39:27.063Z,9
2015-07-17T02:39:45.690Z,10
2015-07-17T02:40:04.159Z,10
2015-07-17T02:40:22.565Z,10
2015-07-17T02:40:41.004Z,10
2015-07-17T02:40:59.582Z,11
2015-07-17T02:41:18.301Z,11
2015-07-17T02:41:36.879Z,12
2015-07-17T02:41:55.366Z,12
2015-07-17T02:42:13.772Z,12
2015-07-17T02:42:32.475Z,13
2015-07-17T02:42:51.071Z,13
2015-07-17T02:43:09.649Z,14
2015-07-17T02:43:28.118Z,14
2015-07-17T02:43:49.573Z,15
2015-07-17T02:44:07.995Z,14
2015-07-17T02:44:26.573Z,14
2015-07-17T02:44:44.965Z,15
2015-07-17T02:45:03.403Z,15
2015-07-17T02:45:22.044Z,16
2015-07-17T02:45:40.637Z,16
2015-07-17T02:45:59.171Z,17
2015-07-17T02:46:17.702Z,17
2015-07-17T02:46:36.155Z,18
2015-07-17T02:46:54.515Z,18
2015-07-17T02:47:13.281Z,19
2015-07-17T02:47:31.781Z,20
2015-07-17T02:47:50.189Z,20
2015-07-17T02:48:08.627Z,21
2015-07-17T02:48:27.283Z,21
2015-07-17T02:48:45.658Z,22
2015-07-17T02:49:04.160Z,22
2015-07-17T02:49:22.613Z,23
2015-07-17T02:49:41.316Z,24
2015-07-17T02:49:59.694Z,25
2015-07-17T02:50:18.319Z,26
2015-07-17T02:50:37.179Z,26
2015-07-17T02:50:55.556Z,27
2015-07-17T02:51:14.102Z,28
2015-07-17T02:51:32.602Z,29
2015-07-17T02:51:51.149Z,30
2015-07-17T02:52:09.604Z,31
2015-07-17T02:52:28.417Z,32
2015-07-17T02:52:46.761Z,33
2015-07-17T02:53:05.185Z,34
2015-07-17T02:53:23.841Z,35
2015-07-17T02:53:42.372Z,36
2015-07-17T02:54:00.951Z,37
2015-07-17T02:54:19.545Z,38
2015-07-17T02:54:37.951Z,40
2015-07-17T02:54:56.701Z,41
2015-07-17T02:55:15.345Z,42
2015-07-17T02:55:33.907Z,44
2015-07-17T02:55:52.329Z,45
2015-07-17T02:56:10.847Z,47
2015-07-17T02:56:29.597Z,48
2015-07-17T02:56:48.034Z,50
2015-07-17T02:57:06.411Z,51
2015-07-17T02:57:24.974Z,53
2015-07-17T02:57:43.802Z,55
2015-07-17T02:58:02.364Z,57
2015-07-17T02:58:20.756Z,58
2015-07-17T02:58:39.256Z,60
2015-07-17T02:58:57.959Z,63
2015-07-17T02:59:16.336Z,64
2015-07-17T02:59:34.883Z,67
2015-07-17T02:59:53.461Z,69
2015-07-17T03:00:12.026Z,71
2015-07-17T03:00:30.573Z,74
2015-07-17T03:00:49.135Z,77
2015-07-17T03:01:07.137Z,79
2015-07-17T03:01:25.543Z,82
2015-07-17T03:01:43.934Z,85
2015-07-17T03:02:02.387Z,87
2015-07-17T03:02:21.264Z,90
2015-07-17T03:02:39.623Z,94
2015-07-17T03:02:58.217Z,97
2015-07-17T03:03:16.172Z,100
2015-07-17T03:03:34.032Z,103
2015-07-17T03:03:52.594Z,106
2015-07-17T03:04:11.018Z,109
2015-07-17T03:04:29.534Z,112
2015-07-17T03:04:48.081Z,116
2015-07-17T03:05:06.456Z,120
2015-07-17T03:05:25.004Z,123
2015-07-17T03:05:43.395Z,127
2015-07-17T03:06:02.004Z,131
2015-07-17T03:06:20.413Z,135
2015-07-17T03:06:39.147Z,139
2015-07-17T03:06:57.506Z,143
2015-07-17T03:07:15.993Z,147
2015-07-17T03:07:34.649Z,152
2015-07-17T03:07:53.165Z,156
2015-07-17T03:08:11.587Z,160
2015-07-17T03:08:30.354Z,165
2015-07-17T03:08:48.729Z,169
2015-07-17T03:09:07.370Z,174
2015-07-17T03:09:25.731Z,178
2015-07-17T03:09:43.653Z,183
2015-07-17T03:10:02.450Z,188
2015-07-17T03:10:20.889Z,193
2015-07-17T03:10:39.405Z,197
2015-07-17T03:10:57.889Z,202
2015-07-17T03:11:16.561Z,208
2015-07-17T03:11:35.266Z,212
2015-07-17T03:11:53.720Z,218
2015-07-17T03:12:12.095Z,222
2015-07-17T03:12:30.612Z,228
2015-07-17T03:12:49.018Z,232
2015-07-17T03:13:07.581Z,238
2015-07-17T03:13:26.177Z,244
2015-07-17T03:13:44.552Z,249
2015-07-17T03:14:02.958Z,254
2015-07-17T03:14:21.413Z,259
2015-07-17T03:14:40.007Z,264
2015-07-17T03:14:58.585Z,270
2015-07-17T03:15:17.179Z,275
2015-07-17T03:15:35.743Z,281
2015-07-17T03:15:54.103Z,286
2015-07-17T03:16:12.556Z,291
2015-07-17T03:16:31.136Z,297
2015-07-17T03:16:49.558Z,302
2015-07-17T03:17:08.089Z,307
2015-07-17T03:17:26.669Z,313
2015-07-17T03:17:45.107Z,318
2015-07-17T03:18:03.560Z,323
2015-07-17T03:18:22.044Z,328
2015-07-17T03:18:40.451Z,333
2015-07-17T03:18:59.373Z,339
2015-07-17T03:19:17.951Z,345
2015-07-17T03:19:36.391Z,350
2015-07-17T03:19:55.172Z,355
2015-07-17T03:20:13.766Z,360
2015-07-17T03:20:32.221Z,366
2015-07-17T03:20:50.737Z,370
2015-07-17T03:21:09.377Z,375
2015-07-17T03:21:27.815Z,381
2015-07-17T03:21:46.379Z,385
2015-07-17T03:22:04.895Z,390
2015-07-17T03:22:23.410Z,396
2015-07-17T03:22:41.834Z,401
2015-07-17T03:23:00.475Z,406
2015-07-17T03:23:19.006Z,412
2015-07-17T03:23:37.430Z,417
2015-07-17T03:23:56.118Z,421
2015-07-17T03:24:14.696Z,427
2015-07-17T03:24:33.008Z,431
2015-07-17T03:24:51.620Z,437
2015-07-17T03:25:09.979Z,440
2015-07-17T03:25:28.370Z,445
2015-07-17T03:25:47.075Z,451
2015-07-17T03:26:05.106Z,455
2015-07-17T03:26:23.575Z,459
2015-07-17T03:26:41.937Z,464
2015-07-17T03:27:00.562Z,468
2015-07-17T03:27:19.140Z,472
2015-07-17T03:27:37.796Z,477
2015-07-17T03:27:56.172Z,481
2015-07-17T03:28:14.547Z,485
2015-07-17T03:28:33.126Z,490
2015-07-17T03:28:51.878Z,495
2015-07-17T03:29:10.503Z,499
2015-07-17T03:29:29.096Z,504
2015-07-17T03:29:47.645Z,508
2015-07-17T03:30:06.005Z,513
2015-07-17T03:30:24.551Z,519
2015-07-17T03:30:43.210Z,523
2015-07-17T03:31:01.913Z,527
2015-07-17T03:31:20.569Z,531
2015-07-17T03:31:39.366Z,535
2015-07-17T03:31:57.915Z,538
2015-07-17T03:32:16.352Z,543
2015-07-17T03:32:35.509Z,547
2015-07-17T03:32:53.918Z,550
2015-07-17T03:33:12.371Z,554
2015-07-17T03:33:30.840Z,557
2015-07-17T03:33:49.419Z,560
2015-07-17T03:34:07.966Z,563
2015-07-17T03:34:26.481Z,566
2015-07-17T03:34:45.044Z,569
2015-07-17T03:35:03.686Z,573
2015-07-17T03:35:22.077Z,576
2015-07-17T03:35:40.655Z,579
2015-07-17T03:35:59.157Z,582
2015-07-17T03:36:17.579Z,585
2015-07-17T03:36:36.407Z,589
2015-07-17T03:36:55.003Z,592
2015-07-17T03:37:13.675Z,596
2015-07-17T03:37:32.097Z,599
2015-07-17T03:37:50.565Z,602
2015-07-17T03:38:09.161Z,601
2015-07-17T03:38:27.786Z,601
2015-07-17T03:38:45.099Z,601
2015-07-17T03:39:03.663Z,601
2015-07-17T03:39:22.241Z,601
2015-07-17T03:39:40.601Z,601
2015-07-17T03:39:59.196Z,601
2015-07-17T03:40:17.665Z,601
2015-07-17T03:40:36.134Z,601
2015-07-17T03:40:54.603Z,600
2015-07-17T03:41:13.089Z,601
2015-07-17T03:41:31.652Z,600
2015-07-17T03:41:50.183Z,600
2015-07-17T03:42:08.794Z,600
2015-07-17T03:42:27.466Z,600
2015-07-17T03:42:46.029Z,600
2015-07-17T03:43:04.531Z,600
2015-07-17T03:43:23.234Z,600
2015-07-17T03:43:41.624Z,600
2015-07-17T03:44:00.094Z,599
2015-07-17T03:44:18.485Z,599
2015-07-17T03:44:37.000Z,599
2015-07-17T03:44:55.735Z,599
2015-07-17T03:45:14.440Z,599
2015-07-17T03:45:32.940Z,598
2015-07-17T03:45:51.518Z,598
2015-07-17T03:46:10.005Z,598
2015-07-17T03:46:28.412Z,598
2015-07-17T03:46:46.802Z,598
2015-07-17T03:47:05.272Z,598
2015-07-17T03:47:23.772Z,598
2015-07-17T03:47:42.413Z,598
2015-07-17T03:48:00.772Z,598
2015-07-17T03:48:19.399Z,598
2015-07-17T03:48:37.274Z,598
2015-07-17T03:48:55.836Z,597
2015-07-17T03:49:14.355Z,597
2015-07-17T03:49:32.855Z,597
2015-07-17T03:49:51.418Z,597
2015-07-17T03:50:09.934Z,597
2015-07-17T03:50:28.372Z,597
2015-07-17T03:50:47.028Z,597
2015-07-17T03:51:05.840Z,597
2015-07-17T03:51:24.311Z,597
2015-07-17T03:51:42.671Z,597
2015-07-17T03:52:00.561Z,597
2015-07-17T03:52:19.126Z,597
2015-07-17T03:52:37.079Z,597
2015-07-17T03:52:55.563Z,597
2015-07-17T03:53:14.207Z,596
2015-07-17T03:53:32.957Z,597
2015-07-17T03:53:51.472Z,597
2015-07-17T03:54:10.051Z,597
2015-07-17T03:54:28.537Z,596
2015-07-17T03:54:47.115Z,596
2015-07-17T03:55:05.584Z,596
2015-07-17T03:55:24.522Z,596
2015-07-17T03:55:43.007Z,596
2015-07-17T03:56:01.569Z,596
2015-07-17T03:56:20.165Z,596
2015-07-17T03:56:38.868Z,596
2015-07-17T03:56:57.399Z,596
2015-07-17T03:57:16.040Z,596
2015-07-17T03:57:34.901Z,596
2015-07-17T03:57:52.698Z,596
2015-07-17T03:58:11.183Z,596
2015-07-17T03:58:29.811Z,596
2015-07-17T03:58:48.311Z,595
2015-07-17T03:59:06.779Z,596
2015-07-17T03:59:25.296Z,596
2015-07-17T03:59:43.718Z,595
2015-07-17T04:00:02.093Z,595
2015-07-17T04:00:20.454Z,595
2015-07-17T04:00:58.298Z,595
2015-07-17T04:01:16.735Z,595
2015-07-17T04:01:35.300Z,595
2015-07-17T04:01:53.847Z,595
2015-07-17T04:02:12.347Z,595
2015-07-17T04:02:31.051Z,595
2015-07-17T04:02:49.457Z,595
2015-07-17T04:03:07.223Z,595
2015-07-17T04:03:25.960Z,595
2015-07-17T04:03:44.757Z,595
2015-07-17T04:04:03.320Z,595
2015-07-17T04:04:22.025Z,595
2015-07-17T04:04:40.509Z,595
2015-07-17T04:04:58.868Z,595
2015-07-17T04:05:17.462Z,595
2015-07-17T04:05:35.995Z,595
2015-07-17T04:05:54.761Z,594
2015-07-17T04:06:13.355Z,594
2015-07-17T04:06:31.763Z,594
2015-07-17T04:06:50.357Z,594
2015-07-17T04:07:08.951Z,594
2015-07-17T04:07:27.718Z,594
2015-07-17T04:07:46.124Z,594
2015-07-17T04:08:04.624Z,594
2015-07-17T04:08:23.124Z,594
2015-07-17T04:08:41.580Z,594
2015-07-17T04:09:00.376Z,594
2015-07-17T04:09:18.861Z,594
2015-07-17T04:09:37.596Z,594
2015-07-17T04:09:56.206Z,594
2015-07-17T04:10:14.706Z,594
2015-07-17T04:10:33.176Z,594
2015-07-17T04:10:51.958Z,594
2015-07-17T04:11:10.458Z,594
2015-07-17T04:11:28.911Z,593
2015-07-17T04:11:47.444Z,594
2015-07-17T04:12:06.100Z,594
2015-07-17T04:12:24.600Z,593
2015-07-17T04:12:43.290Z,594
2015-07-17T04:13:01.868Z,593
2015-07-17T04:13:20.399Z,594
2015-07-17T04:13:39.339Z,594
2015-07-17T04:13:57.885Z,593
2015-07-17T04:14:16.245Z,593
2015-07-17T04:14:34.763Z,593
2015-07-17T04:14:53.154Z,593
2015-07-17T04:15:11.529Z,594
2015-07-17T04:15:29.982Z,593
2015-07-17T04:15:48.546Z,593
2015-07-17T04:16:06.905Z,593
2015-07-17T04:16:24.671Z,593
2015-07-17T04:16:43.048Z,593
2015-07-17T04:17:01.516Z,593
2015-07-17T04:17:20.095Z,594
2015-07-17T04:17:38.534Z,593
2015-07-17T04:17:57.097Z,593
2015-07-17T04:18:15.800Z,593
2015-07-17T04:18:34.393Z,593
2015-07-17T04:18:52.928Z,593
2015-07-17T04:19:11.350Z,593
2015-07-17T04:19:29.975Z,593
2015-07-17T04:19:48.351Z,593
2015-07-17T04:20:06.788Z,593
2015-07-17T04:20:25.351Z,593
2015-07-17T04:20:43.743Z,593
2015-07-17T04:21:02.149Z,593
2015-07-17T04:21:20.634Z,593
2015-07-17T04:21:39.306Z,593
2015-07-17T04:21:57.745Z,593
2015-07-17T04:22:16.323Z,593
2015-07-17T04:22:35.058Z,593
2015-07-17T04:22:53.514Z,593
2015-07-17T04:23:11.967Z,593
2015-07-17T04:23:30.404Z,593
2015-07-17T04:23:48.905Z,593
2015-07-17T04:24:07.421Z,593
2015-07-17T04:24:25.859Z,593
2015-07-17T04:24:44.280Z,593
2015-07-17T04:25:02.782Z,593
2015-07-17T04:25:21.189Z,593
2015-07-17T04:25:39.611Z,593
2015-07-17T04:25:57.972Z,592
2015-07-17T04:26:16.378Z,592
2015-07-17T04:26:35.113Z,593